Terminal Aerodrome Forecast
Issued by NWS Duluth, MN

Home | Current Version | Previous Version | Text Only | Print | Product List | Glossary On
Versions: 1 2 3 4 5 6 7 8 9 10 11 12 13 14 15 16 17 18 19 20 21 22 23 24 25
000
FTUS43 KDLH 030400 AAA
TAFDLH
TAF AMD
KDLH 030444Z 0305/0324 19011KT P6SM OVC090
     FM030800 19010KT P6SM VCSH SCT030 OVC060
     FM031000 20012KT 3SM -SN SCT015 OVC025
      TEMPO 0310/0313 1SM -SN BKN008
     FM031300 23010KT 1/2SM SN OVC006
     FM031800 26015KT 3SM -SN SCT010 OVC020
     FM032100 30016G28KT 6SM BLSN OVC030=

USA.gov is the U.S. government's official web portal to all federal, state and local government web resources and services.